Time;durP1;ratioP1;P1;durP2;ratioP2;P2;SDS_P1;SDS_P2;PMS_P1;PMS_P2;Temp;Humidity;BMP_temperature;BMP_pressure;BME280_temperature;BME280_humidity;BME280_pressure;Samples;Min_cycle;Max_cycle;Signal;HPM_P1;HPM_P2
2022/08/30 00:01:21;;;;;;;5.18;2.95;;;15.10;99.90;;;;;;5144111;27;20039;-72
2022/08/30 00:03:46;;;;;;;4.72;2.88;;;15.10;99.90;;;;;;5119952;27;20050;-72
2022/08/30 00:06:14;;;;;;;3.92;2.72;;;15.20;99.90;;;;;;5144638;27;20042;-73
2022/08/30 00:08:41;;;;;;;8.35;3.55;;;15.10;99.90;;;;;;5136334;27;20110;-72
2022/08/30 00:11:10;;;;;;;5.63;2.92;;;15.10;99.90;;;;;;5125521;27;20059;-72
2022/08/30 00:13:41;;;;;;;4.90;2.92;;;15.20;99.90;;;;;;5121912;27;20515;-73
2022/08/30 00:16:07;;;;;;;4.40;3.25;;;15.10;99.90;;;;;;5125186;27;20067;-72
2022/08/30 00:18:34;;;;;;;8.43;3.30;;;15.10;99.90;;;;;;5137120;27;20134;-72
2022/08/30 00:21:00;;;;;;;4.68;2.85;;;15.20;99.90;;;;;;5143579;27;20043;-72
2022/08/30 00:23:26;;;;;;;6.05;3.20;;;15.10;99.90;;;;;;5141858;27;20047;-72
2022/08/30 00:25:52;;;;;;;5.00;2.88;;;15.10;99.90;;;;;;5142230;27;20062;-72
2022/08/30 00:28:17;;;;;;;4.90;3.17;;;15.10;99.90;;;;;;5143123;27;20047;-72
2022/08/30 00:30:45;;;;;;;4.15;2.40;;;15.10;99.90;;;;;;5122995;27;20103;-72
2022/08/30 00:33:12;;;;;;;5.78;3.00;;;15.00;99.90;;;;;;5125118;27;20036;-72
2022/08/30 00:35:38;;;;;;;5.03;3.00;;;15.10;99.90;;;;;;5121615;28;20107;-72
2022/08/30 00:38:08;;;;;;;5.32;3.10;;;15.10;99.90;;;;;;5117994;28;20058;-72
2022/08/30 00:40:35;;;;;;;6.55;2.67;;;15.10;99.90;;;;;;5136798;27;20424;-72
2022/08/30 00:43:05;;;;;;;5.50;3.15;;;15.10;99.90;;;;;;5124896;27;20045;-72
2022/08/30 00:45:33;;;;;;;5.47;3.00;;;15.10;99.90;;;;;;5122756;27;20035;-72
2022/08/30 00:48:00;;;;;;;4.25;2.63;;;15.10;99.90;;;;;;5142160;27;20037;-72
2022/08/30 00:50:36;;;;;;;5.60;2.50;;;15.20;99.90;;;;;;5122315;27;20043;-72
2022/08/30 00:53:05;;;;;;;4.72;2.92;;;15.10;99.90;;;;;;5136321;27;20075;-72
2022/08/30 00:55:32;;;;;;;5.22;2.80;;;15.10;99.90;;;;;;5118320;28;20521;-72
2022/08/30 00:58:00;;;;;;;7.28;3.08;;;15.10;99.90;;;;;;5124514;27;20043;-72
2022/08/30 01:00:26;;;;;;;4.40;2.72;;;15.10;99.90;;;;;;5141455;27;20088;-72
2022/08/30 01:02:52;;;;;;;7.55;2.72;;;15.10;99.90;;;;;;5124125;27;20043;-72
2022/08/30 01:05:19;;;;;;;4.57;2.50;;;15.10;99.90;;;;;;5123065;27;20095;-72
2022/08/30 01:07:44;;;;;;;4.10;3.00;;;15.10;99.90;;;;;;5124151;27;20043;-72
2022/08/30 01:10:13;;;;;;;5.07;3.03;;;15.20;99.90;;;;;;5143049;27;20090;-72
2022/08/30 01:12:40;;;;;;;6.10;2.63;;;15.00;99.90;;;;;;5122368;27;20043;-72
2022/08/30 01:15:07;;;;;;;4.70;2.70;;;15.10;99.90;;;;;;5125192;27;20474;-72
2022/08/30 01:17:33;;;;;;;6.03;2.80;;;15.10;99.90;;;;;;5121206;28;20042;-72
2022/08/30 01:20:06;;;;;;;4.43;2.53;;;15.00;99.90;;;;;;5121885;28;20047;-72
2022/08/30 01:22:50;;;;;;;4.70;3.10;;;15.00;99.90;;;;;;5119624;27;20108;-72
2022/08/30 01:25:19;;;;;;;6.22;2.90;;;15.00;99.90;;;;;;5123048;27;20485;-72
2022/08/30 01:27:53;;;;;;;4.13;2.53;;;15.00;99.90;;;;;;5142672;27;20054;-72
2022/08/30 01:30:19;;;;;;;5.60;2.65;;;15.00;99.90;;;;;;5123936;27;20068;-72
2022/08/30 01:32:46;;;;;;;4.95;2.50;;;14.90;99.90;;;;;;5145485;27;20054;-71
2022/08/30 01:35:15;;;;;;;3.70;2.30;;;14.90;99.90;;;;;;5146062;27;20397;-72
2022/08/30 01:37:42;;;;;;;4.50;3.00;;;14.90;99.90;;;;;;5145817;27;20035;-71
2022/08/30 01:40:09;;;;;;;6.28;2.90;;;14.90;99.90;;;;;;5145158;27;20406;-71
2022/08/30 01:42:35;;;;;;;5.00;2.63;;;14.90;99.90;;;;;;5126748;27;20043;-71
2022/08/30 01:45:01;;;;;;;5.43;2.90;;;14.80;99.90;;;;;;5147183;27;20126;-71
2022/08/30 01:47:26;;;;;;;4.32;2.30;;;14.90;99.90;;;;;;5124466;27;20050;-71
2022/08/30 01:49:52;;;;;;;4.22;2.67;;;14.80;99.90;;;;;;5121019;27;20398;-71
2022/08/30 01:52:18;;;;;;;5.53;2.75;;;14.80;99.90;;;;;;5128523;27;20553;-71
2022/08/30 01:54:45;;;;;;;4.57;2.50;;;14.70;99.90;;;;;;5125763;27;20031;-72
2022/08/30 01:57:13;;;;;;;4.72;2.45;;;14.70;99.90;;;;;;5127218;27;20051;-71
2022/08/30 01:59:42;;;;;;;4.28;2.47;;;14.70;99.90;;;;;;5144843;27;20085;-72
2022/08/30 02:02:09;;;;;;;3.58;2.28;;;14.70;99.90;;;;;;5126498;27;20494;-71
2022/08/30 02:04:35;;;;;;;5.95;2.60;;;14.70;99.90;;;;;;5144582;27;20045;-71
2022/08/30 02:07:02;;;;;;;4.82;2.65;;;14.60;99.90;;;;;;5143777;27;20091;-72
2022/08/30 02:09:28;;;;;;;6.00;2.70;;;14.70;99.90;;;;;;5128304;27;20038;-72
2022/08/30 02:11:53;;;;;;;6.57;2.78;;;14.60;99.90;;;;;;5124648;27;20047;-71
2022/08/30 02:14:19;;;;;;;4.65;2.53;;;14.60;99.90;;;;;;5146524;27;20035;-71
2022/08/30 02:16:45;;;;;;;3.70;2.17;;;14.60;99.90;;;;;;5125213;27;20402;-72
2022/08/30 02:19:11;;;;;;;3.65;2.08;;;14.60;99.90;;;;;;5144776;27;20047;-71
2022/08/30 02:21:37;;;;;;;6.63;2.30;;;14.60;99.90;;;;;;5126803;27;20126;-72
2022/08/30 02:24:02;;;;;;;5.03;2.33;;;14.60;99.90;;;;;;5144586;27;20099;-71
2022/08/30 02:26:28;;;;;;;4.55;2.40;;;14.50;99.90;;;;;;5125923;27;20082;-71
2022/08/30 02:28:55;;;;;;;4.03;2.13;;;14.60;99.90;;;;;;5144991;27;20565;-71
2022/08/30 02:31:22;;;;;;;4.43;2.50;;;14.50;99.90;;;;;;5143663;27;20134;-71
2022/08/30 02:33:50;;;;;;;5.85;2.40;;;14.60;99.90;;;;;;5125698;27;20087;-71
2022/08/30 02:36:17;;;;;;;4.57;2.25;;;14.60;99.90;;;;;;5120134;27;20055;-72
2022/08/30 02:38:42;;;;;;;3.38;2.00;;;14.60;99.90;;;;;;5146264;27;20034;-72
2022/08/30 02:41:08;;;;;;;4.55;2.47;;;14.60;99.90;;;;;;5143179;27;20120;-71
2022/08/30 02:43:33;;;;;;;3.90;2.10;;;14.60;99.90;;;;;;5125804;27;20130;-71
2022/08/30 02:45:59;;;;;;;4.93;2.03;;;14.60;99.90;;;;;;5144422;27;20431;-72
2022/08/30 02:48:25;;;;;;;4.35;2.10;;;14.60;99.90;;;;;;5125541;27;20039;-71
2022/08/30 02:50:51;;;;;;;4.55;2.30;;;14.60;99.90;;;;;;5125752;27;20113;-71
2022/08/30 02:53:19;;;;;;;4.30;2.33;;;14.50;99.90;;;;;;5124371;27;20039;-71
2022/08/30 02:55:46;;;;;;;5.10;2.40;;;14.50;99.90;;;;;;5146415;27;20035;-70
2022/08/30 02:58:12;;;;;;;4.10;2.35;;;14.50;99.90;;;;;;5119450;27;20054;-71
2022/08/30 03:00:40;;;;;;;3.63;2.60;;;14.40;99.90;;;;;;5126810;27;20033;-72
2022/08/30 03:03:07;;;;;;;4.00;2.35;;;14.30;99.90;;;;;;5125753;27;20042;-71
2022/08/30 03:05:33;;;;;;;4.40;2.20;;;14.40;99.90;;;;;;5120718;27;20054;-71
2022/08/30 03:07:59;;;;;;;4.78;2.25;;;14.30;99.90;;;;;;5125915;27;20043;-71
2022/08/30 03:10:26;;;;;;;5.72;2.45;;;14.30;99.90;;;;;;5143393;27;20045;-71
2022/08/30 03:12:53;;;;;;;4.28;2.67;;;14.30;99.90;;;;;;5143121;27;20055;-71
2022/08/30 03:15:20;;;;;;;4.60;2.85;;;14.30;99.90;;;;;;5126568;27;20605;-71
2022/08/30 03:17:48;;;;;;;4.65;2.55;;;14.20;99.90;;;;;;5123231;27;20125;-71
2022/08/30 03:20:14;;;;;;;5.47;2.50;;;14.20;99.90;;;;;;5141106;27;20129;-71
2022/08/30 03:22:40;;;;;;;6.32;2.42;;;14.30;99.90;;;;;;5123994;27;20042;-71
2022/08/30 03:25:06;;;;;;;4.47;2.90;;;14.30;99.90;;;;;;5144685;27;20478;-71
2022/08/30 03:27:31;;;;;;;4.90;2.78;;;14.10;99.90;;;;;;5124046;27;20450;-71
2022/08/30 03:29:57;;;;;;;4.70;2.78;;;14.10;99.90;;;;;;5125905;27;20079;-71
2022/08/30 03:32:23;;;;;;;5.60;2.45;;;14.10;99.90;;;;;;5143189;27;20046;-71
2022/08/30 03:34:49;;;;;;;5.22;3.08;;;14.00;99.90;;;;;;5123951;27;20034;-71
2022/08/30 03:37:15;;;;;;;4.47;2.58;;;14.00;99.90;;;;;;5143281;27;20035;-71
2022/08/30 03:39:44;;;;;;;5.28;2.63;;;14.00;99.90;;;;;;5125402;27;20042;-71
2022/08/30 03:42:10;;;;;;;4.07;2.47;;;14.00;99.90;;;;;;5123849;27;20993;-71
2022/08/30 03:44:36;;;;;;;4.55;2.67;;;13.90;99.90;;;;;;5145437;27;20042;-71
2022/08/30 03:47:02;;;;;;;5.53;2.85;;;13.90;99.90;;;;;;5140950;27;20035;-70
2022/08/30 03:49:28;;;;;;;5.05;3.00;;;13.90;99.90;;;;;;5126810;27;20046;-71
2022/08/30 03:51:53;;;;;;;4.10;2.97;;;13.90;99.90;;;;;;5143091;27;20533;-71
2022/08/30 03:54:19;;;;;;;4.60;2.88;;;14.00;99.90;;;;;;5123710;27;20096;-71
2022/08/30 03:56:45;;;;;;;4.40;2.80;;;13.70;99.90;;;;;;5143816;27;20058;-71
2022/08/30 03:59:10;;;;;;;5.80;2.78;;;13.80;99.90;;;;;;5141030;27;20498;-70
2022/08/30 04:01:36;;;;;;;4.57;2.88;;;13.80;99.90;;;;;;5126569;27;20084;-71
2022/08/30 04:04:02;;;;;;;4.75;3.15;;;13.60;99.90;;;;;;5121852;27;20098;-71
2022/08/30 04:06:28;;;;;;;3.88;2.70;;;13.60;99.90;;;;;;5140595;27;20035;-70
2022/08/30 04:08:54;;;;;;;4.28;2.80;;;13.70;99.90;;;;;;5143978;27;20524;-70
2022/08/30 04:11:20;;;;;;;5.25;2.65;;;13.70;99.90;;;;;;5142665;27;20111;-70
2022/08/30 04:13:48;;;;;;;4.32;2.97;;;13.50;99.90;;;;;;5123999;27;20074;-71
2022/08/30 04:16:14;;;;;;;6.50;2.80;;;13.50;99.90;;;;;;5143131;27;20394;-70
2022/08/30 04:18:39;;;;;;;4.20;2.80;;;13.50;99.90;;;;;;5125225;27;20039;-71
2022/08/30 04:21:09;;;;;;;5.25;3.10;;;13.50;99.90;;;;;;5142943;27;20043;-71
2022/08/30 04:23:34;;;;;;;9.05;3.08;;;13.40;99.90;;;;;;5123331;27;20330;-70
2022/08/30 04:26:00;;;;;;;6.25;2.85;;;13.40;99.90;;;;;;5125891;27;20046;-70
2022/08/30 04:28:26;;;;;;;4.40;2.75;;;13.30;99.90;;;;;;5117649;28;20046;-70
2022/08/30 04:30:51;;;;;;;4.63;2.85;;;13.30;99.90;;;;;;5141644;27;20034;-71
2022/08/30 04:33:17;;;;;;;4.75;2.95;;;13.30;99.90;;;;;;5122607;27;20043;-70
2022/08/30 04:35:45;;;;;;;5.47;3.05;;;13.30;99.90;;;;;;5142724;27;20035;-70
2022/08/30 04:38:15;;;;;;;6.78;3.35;;;13.30;99.90;;;;;;5124275;27;20129;-70
2022/08/30 04:40:43;;;;;;;5.05;3.17;;;13.20;99.90;;;;;;5123834;27;20122;-71
2022/08/30 04:43:10;;;;;;;5.47;3.25;;;13.20;99.90;;;;;;5124001;27;20050;-70
2022/08/30 04:45:38;;;;;;;5.75;3.20;;;13.20;99.90;;;;;;5123754;27;20146;-70
2022/08/30 04:48:05;;;;;;;4.80;3.30;;;13.20;99.90;;;;;;5126616;27;20039;-71
2022/08/30 04:50:31;;;;;;;4.57;2.97;;;13.20;99.90;;;;;;5121381;27;20047;-70
2022/08/30 04:52:57;;;;;;;4.70;3.30;;;13.20;99.90;;;;;;5125404;27;20121;-70
2022/08/30 04:55:24;;;;;;;5.95;2.97;;;13.20;99.90;;;;;;5140020;27;20074;-70
2022/08/30 04:57:50;;;;;;;4.75;3.30;;;13.20;99.90;;;;;;5125759;27;20038;-70
2022/08/30 05:00:19;;;;;;;4.97;3.22;;;13.10;99.90;;;;;;5122874;27;20043;-70
2022/08/30 05:02:45;;;;;;;5.50;3.08;;;13.10;99.90;;;;;;5142388;27;20043;-70
2022/08/30 05:07:55;;;;;;;9.00;3.10;;;13.10;99.90;;;;;;5122564;27;20043;-70
2022/08/30 05:10:20;;;;;;;;;;;13.00;99.90;;;;;;5129134;27;20045;-71
2022/08/30 05:12:46;;;;;;;7.47;3.60;;;13.00;99.90;;;;;;5126710;27;19919;-70
2022/08/30 05:15:11;;;;;;;;;;;13.00;99.90;;;;;;5147114;27;20047;-71
2022/08/30 05:17:39;;;;;;;4.45;3.10;;;13.00;99.90;;;;;;5124809;27;19923;-70
2022/08/30 05:20:06;;;;;;;5.95;3.45;;;13.00;99.90;;;;;;5125123;27;20436;-70
2022/08/30 05:22:38;;;;;;;4.75;3.20;;;13.00;99.90;;;;;;5122732;27;20047;-70
2022/08/30 05:25:05;;;;;;;5.00;3.35;;;13.00;99.90;;;;;;5125706;27;20077;-71
2022/08/30 05:27:31;;;;;;;4.90;3.20;;;13.10;99.90;;;;;;5121609;27;20046;-70
2022/08/30 05:29:57;;;;;;;4.72;3.40;;;13.00;99.90;;;;;;5143188;27;20031;-70
2022/08/30 05:32:22;;;;;;;;;;;13.10;99.90;;;;;;5124636;27;20050;-71
2022/08/30 05:34:48;;;;;;;6.28;2.97;;;13.10;99.90;;;;;;5148090;27;20006;-70
2022/08/30 05:37:13;;;;;;;;;;;13.20;99.90;;;;;;5125808;27;20401;-70
2022/08/30 05:39:39;;;;;;;4.32;3.30;;;13.10;99.90;;;;;;5146041;27;19915;-71
2022/08/30 05:42:05;;;;;;;5.05;3.00;;;13.20;99.90;;;;;;5125979;27;20065;-70
2022/08/30 05:44:31;;;;;;;4.10;3.03;;;13.20;99.90;;;;;;5127721;27;20042;-70
2022/08/30 05:46:56;;;;;;;4.85;3.40;;;13.20;99.90;;;;;;5144803;27;20043;-71
2022/08/30 05:49:22;;;;;;;4.72;3.53;;;13.20;99.90;;;;;;5126314;27;20050;-70
2022/08/30 05:51:48;;;;;;;5.05;3.55;;;13.30;99.90;;;;;;5127658;27;20034;-71
2022/08/30 05:54:15;;;;;;;6.40;3.88;;;13.30;99.90;;;;;;5124724;27;20099;-71
2022/08/30 05:56:44;;;;;;;4.95;3.47;;;13.40;99.90;;;;;;5120403;27;20062;-72
2022/08/30 05:59:10;;;;;;;6.07;3.88;;;13.40;99.90;;;;;;5127343;27;20050;-70
2022/08/30 06:01:39;;;;;;;5.50;3.65;;;13.40;99.90;;;;;;5127648;27;20043;-70
2022/08/30 06:04:06;;;;;;;6.43;3.83;;;13.40;99.90;;;;;;5125639;27;20372;-70
2022/08/30 06:06:34;;;;;;;5.22;3.80;;;13.50;99.90;;;;;;5145507;27;20077;-70
2022/08/30 06:09:01;;;;;;;6.00;3.92;;;13.50;99.90;;;;;;5126263;27;20049;-70
2022/08/30 06:11:26;;;;;;;5.93;4.60;;;13.60;99.90;;;;;;5145472;27;20054;-70
2022/08/30 06:13:53;;;;;;;8.35;5.05;;;13.60;99.90;;;;;;5144717;27;20043;-70
2022/08/30 06:16:22;;;;;;;8.55;4.85;;;13.70;99.90;;;;;;5124342;27;20104;-71
2022/08/30 06:18:47;;;;;;;8.18;5.28;;;13.70;99.90;;;;;;5124643;27;20083;-70
2022/08/30 06:21:22;;;;;;;8.02;5.03;;;13.80;99.90;;;;;;5123697;27;20047;-70
2022/08/30 06:23:55;;;;;;;8.23;4.72;;;13.80;99.90;;;;;;5122457;27;20066;-71
2022/08/30 06:26:24;;;;;;;6.38;4.72;;;13.80;99.90;;;;;;5126219;27;20063;-70
2022/08/30 06:28:53;;;;;;;7.07;4.78;;;13.90;99.90;;;;;;5125967;27;20091;-70
2022/08/30 06:31:20;;;;;;;6.70;4.60;;;13.90;99.90;;;;;;5124656;27;20446;-70
2022/08/30 06:33:47;;;;;;;6.82;4.55;;;14.00;99.90;;;;;;5125411;27;20078;-70
2022/08/30 06:36:16;;;;;;;9.13;4.75;;;14.00;99.90;;;;;;5141522;27;20084;-71
2022/08/30 06:38:42;;;;;;;9.63;4.78;;;14.10;99.90;;;;;;5143809;27;20043;-71
2022/08/30 06:41:14;;;;;;;6.93;4.35;;;14.10;99.90;;;;;;5141561;27;20068;-71
2022/08/30 06:43:40;;;;;;;7.38;4.50;;;14.20;99.90;;;;;;5140100;27;20039;-71
2022/08/30 06:46:14;;;;;;;9.85;4.95;;;14.40;99.90;;;;;;5127692;27;20046;-71
2022/08/30 06:48:40;;;;;;;6.32;4.68;;;14.40;99.90;;;;;;5118043;27;20099;-71
2022/08/30 06:51:06;;;;;;;6.50;4.63;;;14.50;99.90;;;;;;5123184;27;20126;-72
2022/08/30 06:53:33;;;;;;;5.88;4.63;;;14.60;99.90;;;;;;5138915;27;20031;-72
2022/08/30 06:56:01;;;;;;;6.93;4.65;;;14.70;99.90;;;;;;5126422;27;20045;-72
2022/08/30 06:58:30;;;;;;;7.20;4.95;;;14.80;99.90;;;;;;5124778;27;20058;-74
2022/08/30 07:00:58;;;;;;;6.32;4.38;;;15.00;99.90;;;;;;5143762;27;20095;-72
2022/08/30 07:03:26;;;;;;;6.30;4.47;;;15.10;99.90;;;;;;5118497;27;20189;-71
2022/08/30 07:05:52;;;;;;;7.50;4.43;;;15.20;99.90;;;;;;5144191;27;20039;-71
2022/08/30 07:08:18;;;;;;;7.68;4.00;;;15.30;99.90;;;;;;5125322;27;20494;-69
2022/08/30 07:10:45;;;;;;;5.97;4.05;;;15.50;99.90;;;;;;5124641;27;20091;-69
2022/08/30 07:13:11;;;;;;;5.07;3.58;;;15.60;99.90;;;;;;5125865;27;20042;-70
2022/08/30 07:15:41;;;;;;;7.40;4.30;;;15.80;99.90;;;;;;5124050;27;20042;-70
2022/08/30 07:20:54;;;;;;;5.13;3.17;;;17.50;99.90;;;;;;5125810;27;20043;-73
2022/08/30 07:23:20;;;;;;;5.43;2.75;;;19.30;99.90;;;;;;5142295;27;20042;-75
2022/08/30 07:25:46;;;;;;;7.25;2.72;;;20.60;99.90;;;;;;5143944;27;20054;-74
2022/08/30 07:28:12;;;;;;;4.53;2.70;;;21.80;99.90;;;;;;5124409;27;20061;-74
2022/08/30 07:30:40;;;;;;;7.38;2.40;;;22.80;99.90;;;;;;5123767;27;20501;-73
2022/08/30 07:33:05;;;;;;;4.00;2.50;;;23.70;99.90;;;;;;5125779;27;20043;-72
2022/08/30 07:35:31;;;;;;;6.43;2.40;;;24.20;99.90;;;;;;5126699;27;20037;-72
2022/08/30 07:37:57;;;;;;;2.75;1.63;;;24.40;96.00;;;;;;5121685;27;20027;-72
2022/08/30 07:40:23;;;;;;;4.55;2.20;;;25.00;98.00;;;;;;5126702;27;20035;-73
2022/08/30 07:42:49;;;;;;;4.07;1.85;;;25.50;98.70;;;;;;5141845;27;20391;-72
2022/08/30 07:45:15;;;;;;;4.03;1.85;;;26.00;97.60;;;;;;5143462;27;20550;-70
2022/08/30 07:47:41;;;;;;;3.30;1.67;;;26.50;96.20;;;;;;5123847;27;20035;-73
2022/08/30 07:50:08;;;;;;;2.55;1.40;;;27.00;92.80;;;;;;5123716;27;20038;-73
2022/08/30 07:52:33;;;;;;;5.25;1.30;;;27.00;92.60;;;;;;5124752;27;20085;-70
2022/08/30 07:55:00;;;;;;;2.83;1.50;;;27.00;92.80;;;;;;5141731;27;20071;-70
2022/08/30 07:57:26;;;;;;;3.83;1.67;;;27.10;91.90;;;;;;5144851;27;20884;-70
2022/08/30 07:59:53;;;;;;;3.60;1.52;;;27.40;90.80;;;;;;5121150;27;20087;-71
2022/08/30 08:02:19;;;;;;;3.10;1.60;;;27.50;91.50;;;;;;5141334;27;20058;-71
2022/08/30 08:04:45;;;;;;;2.45;1.40;;;27.60;91.40;;;;;;5125737;27;20077;-69
2022/08/30 08:07:11;;;;;;;4.25;1.65;;;27.90;91.70;;;;;;5123199;27;20508;-70
2022/08/30 08:09:37;;;;;;;4.60;1.50;;;28.20;90.80;;;;;;5124581;27;20039;-71
2022/08/30 08:12:06;;;;;;;4.15;1.65;;;28.60;91.10;;;;;;5124272;27;20382;-71
2022/08/30 08:14:32;;;;;;;3.20;1.35;;;28.70;88.40;;;;;;5123283;27;20073;-71
2022/08/30 08:16:59;;;;;;;2.45;1.30;;;28.80;90.20;;;;;;5121164;27;20043;-71
2022/08/30 08:19:25;;;;;;;3.53;1.20;;;29.10;90.10;;;;;;5122627;27;20039;-72
2022/08/30 08:21:55;;;;;;;3.13;1.38;;;29.60;89.80;;;;;;5121686;27;20379;-70
2022/08/30 08:24:22;;;;;;;3.97;1.27;;;29.90;88.70;;;;;;5118925;27;20658;-74
2022/08/30 08:26:47;;;;;;;3.80;1.40;;;30.00;86.20;;;;;;5123375;27;20482;-75
2022/08/30 08:29:13;;;;;;;3.28;1.48;;;30.20;86.10;;;;;;5120045;27;20047;-75
2022/08/30 08:31:40;;;;;;;2.53;1.15;;;30.30;83.30;;;;;;5125097;27;20057;-74
2022/08/30 08:34:06;;;;;;;3.53;1.45;;;30.60;86.90;;;;;;5123021;27;20118;-74
2022/08/30 08:36:35;;;;;;;6.38;1.58;;;31.00;81.10;;;;;;5124574;27;20039;-74
2022/08/30 08:39:03;;;;;;;4.45;1.42;;;31.00;84.60;;;;;;5142857;27;20394;-82
2022/08/30 08:41:47;;;;;;;2.72;1.40;;;31.10;85.10;;;;;;5127560;27;20047;-75
2022/08/30 08:44:58;;;;;;;2.97;1.20;;;31.20;84.80;;;;;;5143988;27;20060;-80
2022/08/30 08:47:54;;;;;;;3.60;1.50;;;31.30;80.10;;;;;;5143932;27;20168;-74
2022/08/30 08:50:21;;;;;;;4.05;1.48;;;30.70;81.70;;;;;;5142647;27;20126;-77
2022/08/30 08:55:49;;;;;;;5.95;1.73;;;29.50;82.90;;;;;;5121931;27;20099;-73
2022/08/30 08:58:31;;;;;;;2.95;1.38;;;29.30;83.90;;;;;;5122520;27;20165;-74
2022/08/30 09:00:57;;;;;;;4.07;1.42;;;29.50;84.70;;;;;;5140135;27;20047;-85
2022/08/30 09:03:27;;;;;;;3.45;1.30;;;30.20;85.00;;;;;;5127674;27;20031;-74
2022/08/30 09:05:54;;;;;;;4.65;1.40;;;30.40;82.80;;;;;;5145547;27;20435;-78
2022/08/30 09:08:22;;;;;;;2.63;1.30;;;30.00;83.00;;;;;;5147579;27;20034;-74
2022/08/30 09:11:03;;;;;;;2.53;1.30;;;28.80;83.50;;;;;;5125597;27;20478;-74
2022/08/30 09:13:29;;;;;;;3.75;1.48;;;28.70;86.00;;;;;;5145934;27;20050;-74
2022/08/30 09:15:57;;;;;;;2.90;1.40;;;29.00;84.60;;;;;;5145107;27;20031;-74
2022/08/30 09:18:40;;;;;;;3.53;1.33;;;29.20;85.20;;;;;;5146525;27;20130;-75
2022/08/30 09:21:07;;;;;;;3.35;1.42;;;29.50;84.70;;;;;;5124460;27;20051;-75
2022/08/30 09:23:33;;;;;;;3.22;1.27;;;28.70;84.30;;;;;;5135961;27;20043;-75
2022/08/30 09:26:06;;;;;;;3.05;1.40;;;28.80;85.40;;;;;;5129780;27;20058;-72
2022/08/30 09:28:42;;;;;;;2.88;1.30;;;28.90;85.60;;;;;;5121685;27;20145;-74
2022/08/30 09:31:26;;;;;;;4.90;1.40;;;29.40;84.20;;;;;;5117449;27;20059;-75
2022/08/30 09:34:02;;;;;;;3.80;1.23;;;29.00;83.70;;;;;;5133832;27;20244;-81
2022/08/30 09:36:40;;;;;;;4.22;1.30;;;28.50;85.00;;;;;;5120795;27;20050;-76
2022/08/30 09:39:27;;;;;;;2.35;1.10;;;27.70;84.90;;;;;;5118441;27;20039;-77
2022/08/30 09:41:54;;;;;;;3.65;1.60;;;27.50;87.20;;;;;;5119821;27;20047;-77
2022/08/30 09:44:29;;;;;;;5.95;1.30;;;27.20;87.40;;;;;;5124292;27;20039;-75
2022/08/30 09:46:57;;;;;;;2.60;1.20;;;26.80;87.40;;;;;;5142808;27;20087;-79
2022/08/30 09:49:31;;;;;;;2.97;1.40;;;26.50;88.90;;;;;;5143792;27;20042;-77
2022/08/30 09:52:26;;;;;;;4.80;1.38;;;27.00;89.70;;;;;;5143683;27;20138;-77
2022/08/30 09:55:19;;;;;;;2.70;1.40;;;27.70;86.60;;;;;;5144075;27;20053;-78
2022/08/30 09:58:13;;;;;;;6.18;2.03;;;27.80;84.20;;;;;;5143318;27;20457;-79
2022/08/30 10:01:18;;;;;;;2.85;1.33;;;27.40;85.30;;;;;;5142426;27;20098;-78
2022/08/30 10:04:14;;;;;;;2.95;1.30;;;28.00;86.20;;;;;;5119424;27;20043;-78
2022/08/30 10:06:52;;;;;;;3.00;1.30;;;27.90;85.50;;;;;;5124519;27;20038;-78
2022/08/30 10:09:29;;;;;;;4.53;1.50;;;28.50;84.50;;;;;;5141565;27;20058;-78
2022/08/30 10:12:13;;;;;;;4.20;1.58;;;28.10;84.70;;;;;;5127075;27;20060;-77
2022/08/30 10:15:10;;;;;;;4.38;1.30;;;28.00;83.90;;;;;;5125606;27;20078;-78
2022/08/30 10:17:44;;;;;;;;;;;27.80;85.40;;;;;;5138966;27;20133;-79
2022/08/30 10:20:26;;;;;;;3.00;1.48;;;27.90;86.00;;;;;;5125302;27;19930;-78
2022/08/30 10:22:54;;;;;;;3.72;1.08;;;28.90;84.20;;;;;;5146119;27;20053;-84
2022/08/30 10:25:42;;;;;;;3.58;1.25;;;29.30;83.10;;;;;;5125114;27;20066;-76
2022/08/30 10:28:26;;;;;;;3.70;1.30;;;28.40;81.80;;;;;;5122193;27;20372;-78
2022/08/30 10:30:58;;;;;;;5.30;1.38;;;27.90;83.20;;;;;;5141269;27;20061;-80
2022/08/30 10:33:29;;;;;;;4.85;1.63;;;27.40;83.40;;;;;;5116866;27;20039;-79
2022/08/30 10:35:58;;;;;;;2.75;1.15;;;26.80;85.20;;;;;;5146372;27;20098;-78
2022/08/30 10:38:39;;;;;;;3.20;1.40;;;27.20;85.60;;;;;;5119787;27;20136;-82
2022/08/30 10:41:34;;;;;;;3.20;1.20;;;27.20;84.30;;;;;;5117742;27;20082;-80
2022/08/30 10:44:14;;;;;;;3.38;1.70;;;27.90;86.60;;;;;;5138034;27;20541;-75
2022/08/30 10:47:17;;;;;;;2.60;1.30;;;28.50;81.40;;;;;;5125975;27;20053;-73
2022/08/30 10:49:45;;;;;;;3.30;1.60;;;29.30;83.50;;;;;;5125088;27;20534;-75
2022/08/30 10:52:19;;;;;;;4.95;1.58;;;29.60;80.80;;;;;;5125043;27;20087;-79
2022/08/30 10:54:57;;;;;;;2.10;1.10;;;30.00;81.40;;;;;;5126410;27;20054;-74
2022/08/30 10:57:23;;;;;;;3.80;1.27;;;30.40;80.00;;;;;;5123549;27;20058;-77
2022/08/30 11:00:03;;;;;;;3.13;1.10;;;30.90;81.20;;;;;;5124143;27;20115;-75
2022/08/30 11:03:04;;;;;;;5.30;1.20;;;30.90;79.60;;;;;;5119919;27;20035;-72
2022/08/30 11:06:24;;;;;;;2.42;1.35;;;30.80;78.40;;;;;;5121979;27;20039;-73
2022/08/30 11:09:11;;;;;;;3.30;1.35;;;31.20;80.00;;;;;;5094315;27;20039;-73
2022/08/30 11:11:55;;;;;;;3.45;1.10;;;31.30;77.00;;;;;;5120241;27;20662;-71
2022/08/30 11:14:22;;;;;;;2.72;1.17;;;31.10;75.80;;;;;;5109602;27;20095;-71
2022/08/30 11:16:50;;;;;;;3.65;1.15;;;31.20;77.30;;;;;;5133365;27;20100;-72
2022/08/30 11:19:26;;;;;;;2.72;1.25;;;31.20;76.40;;;;;;5139652;27;20035;-72
2022/08/30 11:22:12;;;;;;;5.60;1.20;;;31.20;76.90;;;;;;5118411;27;20039;-72
2022/08/30 11:24:56;;;;;;;4.47;1.27;;;30.70;76.10;;;;;;5123532;27;20070;-72
2022/08/30 11:28:00;;;;;;;2.58;1.10;;;30.60;77.50;;;;;;5140896;27;20047;-71
2022/08/30 11:30:27;;;;;;;3.22;1.15;;;30.50;77.80;;;;;;5060355;28;20151;-71
2022/08/30 11:33:10;;;;;;;4.05;1.15;;;30.50;77.30;;;;;;5081192;28;20121;-71
2022/08/30 11:35:45;;;;;;;2.42;0.98;;;30.70;79.10;;;;;;5099395;27;20092;-71
2022/08/30 11:38:17;;;;;;;2.38;1.10;;;30.90;75.60;;;;;;5140260;27;20074;-74
2022/08/30 11:40:48;;;;;;;1.98;0.90;;;30.60;76.40;;;;;;5141481;27;20039;-73
2022/08/30 11:43:35;;;;;;;4.43;1.38;;;30.60;75.50;;;;;;5134528;27;20039;-79
2022/08/30 11:46:25;;;;;;;2.58;1.13;;;30.30;75.30;;;;;;5122974;27;20088;-73
2022/08/30 11:49:04;;;;;;;4.00;1.27;;;30.50;77.20;;;;;;5138860;27;20058;-72
2022/08/30 11:51:33;;;;;;;4.03;1.38;;;30.70;75.20;;;;;;5124100;27;20049;-72
2022/08/30 11:54:43;;;;;;;2.55;1.10;;;30.50;75.80;;;;;;5124734;27;20043;-74
2022/08/30 11:57:45;;;;;;;2.05;1.00;;;30.40;76.20;;;;;;5140179;27;20036;-73
2022/08/30 12:00:32;;;;;;;4.15;1.17;;;30.20;75.60;;;;;;5136820;27;20325;-86
2022/08/30 12:02:58;;;;;;;3.22;1.30;;;30.20;77.00;;;;;;5140209;27;20075;-71
2022/08/30 12:05:39;;;;;;;2.42;1.20;;;30.20;76.50;;;;;;5142125;27;20113;-72
2022/08/30 12:08:10;;;;;;;2.72;1.10;;;30.10;75.70;;;;;;5142343;27;20043;-73
2022/08/30 12:10:41;;;;;;;2.95;1.20;;;30.10;76.40;;;;;;5141385;27;20035;-72
2022/08/30 12:13:08;;;;;;;2.15;0.95;;;29.90;76.80;;;;;;5143630;27;20062;-72
2022/08/30 12:15:55;;;;;;;4.53;1.38;;;30.10;75.80;;;;;;5124201;27;20100;-73
2022/08/30 12:18:28;;;;;;;4.18;1.48;;;30.00;76.40;;;;;;5121354;27;20039;-72
2022/08/30 12:21:00;;;;;;;2.40;1.10;;;29.70;75.40;;;;;;5123538;27;20068;-72
2022/08/30 12:23:32;;;;;;;3.97;1.15;;;29.70;76.00;;;;;;5122642;27;20043;-72
2022/08/30 12:26:31;;;;;;;3.53;0.93;;;29.80;75.50;;;;;;5121250;27;20039;-72
2022/08/30 12:29:25;;;;;;;3.00;1.10;;;29.90;75.50;;;;;;5135253;27;20050;-73
2022/08/30 12:32:14;;;;;;;2.80;1.00;;;29.80;74.10;;;;;;5121263;27;20046;-72
2022/08/30 12:34:39;;;;;;;3.67;1.05;;;29.80;77.80;;;;;;5136365;27;20027;-71
2022/08/30 12:37:07;;;;;;;2.95;1.20;;;29.60;76.30;;;;;;5125739;27;20497;-72
2022/08/30 12:39:40;;;;;;;5.18;1.17;;;29.50;75.40;;;;;;5141232;27;20039;-72
2022/08/30 12:42:23;;;;;;;2.63;1.00;;;29.20;76.30;;;;;;5136719;27;20111;-72
2022/08/30 12:44:56;;;;;;;2.53;1.08;;;29.20;77.60;;;;;;5120154;27;20093;-72
2022/08/30 12:47:52;;;;;;;2.75;1.10;;;29.00;77.40;;;;;;5123199;27;20072;-72
2022/08/30 12:50:22;;;;;;;5.18;1.08;;;28.80;76.60;;;;;;5122193;27;20490;-74
2022/08/30 12:52:58;;;;;;;3.00;1.23;;;28.60;76.60;;;;;;5124316;27;20043;-74
2022/08/30 12:55:25;;;;;;;;;;;28.40;77.10;;;;;;5143027;27;20066;-73
2022/08/30 12:58:02;;;;;;;2.63;1.08;;;28.10;78.40;;;;;;5141918;27;19923;-74
2022/08/30 13:00:40;;;;;;;2.85;1.20;;;27.90;77.80;;;;;;5126184;27;20074;-74
2022/08/30 13:03:28;;;;;;;2.67;0.95;;;27.60;77.40;;;;;;5136627;27;20118;-73
2022/08/30 13:05:56;;;;;;;3.10;1.10;;;27.40;79.10;;;;;;5122842;27;20393;-74
2022/08/30 13:08:26;;;;;;;2.38;1.02;;;27.20;78.00;;;;;;5120528;27;20122;-71
2022/08/30 13:11:01;;;;;;;2.70;1.10;;;26.90;76.70;;;;;;5140011;27;20039;-73
2022/08/30 13:13:32;;;;;;;2.40;1.10;;;26.70;77.50;;;;;;5125490;27;20035;-72
2022/08/30 13:16:25;;;;;;;2.55;0.98;;;26.40;79.00;;;;;;5123742;28;20039;-73